Airfield :
LOGIN :

Register | Disclaimer

   EN    FR    IT 

 










Legend :    VFR   Marginal VFR   IFR   Intensive IFR   Very Intensive IFR
Visi :
Ceiling :
>= 8 km
>= 3000ft
5 to 8 km
1000 to 3000 ft
1500m to 5 km
500 to 1000 ft
800 to 1500m
200 to 500 ft
< 800m
< 200 ft
Symbols :   Thunderstorms  Fog  Heavy snow  Heavy precipitations  Wind > 20 kt
SIGMETs :     Misc.  Thunderstorms  Icing  Turbulence  Mountain Waves  Volcanic Ashes






- Airport Elevation : 436 ft
- IATA code : ANG


LFBU - Angoulême Brie Champniers

CURRENT METAR :
  • 261000Z AUTO 03006KT 0500 R28/0700U FZFG VV/// M02/M02 Q1034 BECMG 6000 NSW SCT004

EXPIRED METARs :
  • 260930Z AUTO 02006KT 0550 0450 R28/0650U FZFG VV/// M02/M02 Q1034 BECMG CAVOK
  • 260900Z AUTO 01007KT 0650 0600 R28/0800N FZFG VV/// M02/M03 Q1034 BECMG 6000 NSW SCT004
  • 260830Z AUTO 02006KT 0550 0500 R28/0650N FZFG VV/// M03/M03 Q1033 BECMG 6000 NSW SCT004
  • 260800Z AUTO 02007KT 0650 0550 R28/0700N FZFG VV/// M03/M03 Q1033 BECMG 6000 NSW SCT004
  • 260730Z AUTO 01007KT 0700 0600 R28/0750N FZFG VV/// M03/M03 Q1033 BECMG 6000 NSW SCT004

TAF AMD TAF LFBU
Valid from the 26 at 09:00 until the 27 at 06:00 UTC


260940Z 2609/2706 02007KT 3000 BR BKN002
TEMPO 2609/2611 0500 FZFG VV///
BECMG 2609/2611 6000 NSW SCT004
BECMG 2611/2613 CAVOK
PROB40
TEMPO 2621/2706 3000 BR



MET'MAP, your aeronautical weather chart ! - Copyright ORBIFLY December 2007 - Disclaimer

ORBIFLY MET'MAP TEAM :

Programming & Development : Alexandra Zaïnal
Original concept : Baudouin d'Aumeries
Technical & hardware support : Manuel Goepfert
Assistance : Marc-Olivier Méhu

Contact : metmap@orbifly.com




SOURCES & CREDITS :

   NOAA